Time;durP1;ratioP1;P1;durP2;ratioP2;P2;SDS_P1;SDS_P2;PMS_P1;PMS_P2;Temp;Humidity;BMP_temperature;BMP_pressure;BME280_temperature;BME280_humidity;BME280_pressure;Samples;Min_cycle;Max_cycle;Signal;HPM_P1;HPM_P2
2023/03/13 00:00:54;;;;;;;28.30;4.57;;;;;;;-145.18;100.00;46691.66;5030784;28;20282;-73
2023/03/13 00:03:19;;;;;;;28.03;4.07;;;;;;;-145.18;100.00;46683.84;5031181;28;20136;-74
2023/03/13 00:05:45;;;;;;;24.33;4.77;;;;;;;-145.18;100.00;46683.84;5029949;28;20358;-74
2023/03/13 00:08:10;;;;;;;25.27;3.63;;;;;;;-145.18;100.00;46679.94;5031037;28;20038;-74
2023/03/13 00:10:37;;;;;;;24.67;3.60;;;;;;;-145.18;100.00;46681.88;5030251;28;20034;-74
2023/03/13 00:13:04;;;;;;;30.37;5.33;;;;;;;-145.18;100.00;46679.94;5030629;28;20050;-73
2023/03/13 00:15:30;;;;;;;40.03;4.93;;;;;;;-145.18;100.00;46683.84;5030637;28;20389;-73
2023/03/13 00:17:55;;;;;;;27.83;4.33;;;;;;;-145.18;100.00;46679.94;5029923;28;20041;-74
2023/03/13 00:20:20;;;;;;;23.53;4.37;;;;;;;-145.18;100.00;46674.06;5030640;28;20099;-74
2023/03/13 00:22:46;;;;;;;29.37;6.60;;;;;;;-145.18;100.00;46679.94;5030048;28;20083;-74
2023/03/13 00:25:11;;;;;;;24.70;5.10;;;;;;;-145.18;100.00;46674.06;5030781;28;20117;-73
2023/03/13 00:27:36;;;;;;;33.10;5.20;;;;;;;-145.18;100.00;46674.06;5012607;28;20037;-73
2023/03/13 00:30:02;;;;;;;36.00;5.33;;;;;;;-145.18;100.00;46676.03;5030184;28;20041;-73
2023/03/13 00:32:27;;;;;;;29.77;5.63;;;;;;;-145.18;100.00;46679.94;5030469;28;20033;-73
2023/03/13 00:34:53;;;;;;;30.40;5.37;;;;;;;-145.18;100.00;46681.88;5022559;28;20037;-73
2023/03/13 00:37:18;;;;;;;26.17;5.93;;;;;;;-145.18;100.00;46668.22;5030157;28;20061;-73
2023/03/13 00:39:44;;;;;;;29.00;6.00;;;;;;;-145.18;100.00;46672.13;5030247;28;20077;-73
2023/03/13 00:42:09;;;;;;;26.33;4.90;;;;;;;-145.18;100.00;46672.13;5012752;28;20033;-73
2023/03/13 00:44:34;;;;;;;27.27;5.37;;;;;;;-145.18;100.00;46674.06;5030444;28;20548;-73
2023/03/13 00:47:00;;;;;;;25.53;5.37;;;;;;;-145.18;100.00;46672.13;5029798;28;20037;-73
2023/03/13 00:49:25;;;;;;;29.03;5.70;;;;;;;-145.18;100.00;46670.16;5017867;28;20037;-73
2023/03/13 00:51:50;;;;;;;25.43;5.67;;;;;;;-145.18;100.00;46674.06;5010317;28;20088;-73
2023/03/13 00:54:16;;;;;;;27.83;5.83;;;;;;;-145.18;100.00;46668.22;5014079;28;20112;-73
2023/03/13 00:56:41;;;;;;;33.80;8.13;;;;;;;-145.18;100.00;46672.13;5029755;28;20033;-74
2023/03/13 00:59:07;;;;;;;27.63;6.17;;;;;;;-145.18;100.00;46668.22;5022435;28;20037;-74
2023/03/13 01:01:36;;;;;;;29.53;6.40;;;;;;;-145.18;100.00;46676.03;5029828;28;20026;-74
2023/03/13 01:04:05;;;;;;;31.40;6.73;;;;;;;-145.18;100.00;46664.31;5029836;28;20095;-74
2023/03/13 01:06:34;;;;;;;24.40;6.30;;;;;;;-145.18;100.00;46666.25;5030121;28;20266;-73
2023/03/13 01:09:00;;;;;;;19.90;5.63;;;;;;;-145.18;100.00;46666.25;5028762;28;20630;-73
2023/03/13 01:11:27;;;;;;;20.97;6.03;;;;;;;-145.18;100.00;46664.31;5028656;28;20298;-73
2023/03/13 01:13:55;;;;;;;23.87;5.60;;;;;;;-145.18;100.00;46662.34;5029350;28;20393;-73
2023/03/13 01:16:22;;;;;;;24.17;6.47;;;;;;;-145.18;100.00;46670.16;5029947;28;20267;-73
2023/03/13 01:18:50;;;;;;;26.13;6.07;;;;;;;-145.18;100.00;46670.16;5029744;28;20382;-73
2023/03/13 01:21:18;;;;;;;19.57;6.03;;;;;;;-145.18;100.00;46660.41;5026654;28;20285;-73
2023/03/13 01:23:44;;;;;;;15.83;6.10;;;;;;;-145.18;100.00;46664.31;5029604;28;20636;-73
2023/03/13 01:26:10;;;;;;;16.60;5.60;;;;;;;-145.18;100.00;46662.34;5029765;28;20674;-73
2023/03/13 01:28:36;;;;;;;22.60;6.53;;;;;;;-145.18;100.00;46664.31;5012110;28;20038;-73
2023/03/13 01:31:35;;;;;;;20.40;5.60;;;;;;;-145.18;100.00;46662.34;5029490;28;20037;-73
2023/03/13 01:34:03;;;;;;;19.47;6.73;;;;;;;-145.18;100.00;46662.34;5026999;28;20052;-73
2023/03/13 01:36:28;;;;;;;19.93;6.17;;;;;;;-145.18;100.00;46660.41;5029618;28;20825;-73
2023/03/13 01:38:57;;;;;;;16.77;5.73;;;;;;;-145.18;100.00;46662.34;5029681;28;20271;-73
2023/03/13 01:41:23;;;;;;;17.60;6.00;;;;;;;-145.18;100.00;46662.34;5029472;28;20033;-73
2023/03/13 01:43:49;;;;;;;15.00;6.43;;;;;;;-145.18;100.00;46664.31;5023089;28;20751;-73
2023/03/13 01:46:17;;;;;;;16.93;6.23;;;;;;;-145.18;100.00;46660.41;5029369;28;20314;-73
2023/03/13 01:48:42;;;;;;;17.90;6.23;;;;;;;-145.18;100.00;46666.25;5029596;28;20528;-73
2023/03/13 01:51:13;;;;;;;19.53;6.97;;;;;;;-145.18;100.00;46662.34;5029390;28;20377;-73
2023/03/13 01:53:42;;;;;;;13.23;6.47;;;;;;;-145.18;100.00;46656.50;5029199;28;20033;-73
2023/03/13 01:56:14;;;;;;;23.97;7.93;;;;;;;-145.18;100.00;46664.31;5029556;28;20309;-73
2023/03/13 01:58:39;;;;;;;19.37;8.73;;;;;;;-145.18;100.00;46668.22;5029360;28;20278;-73
2023/03/13 02:03:41;;;;;;;22.63;9.02;;;;;;;-145.18;100.00;46662.34;5015284;23;19945;-72
2023/03/13 02:06:07;;;;;;;23.83;10.40;;;;;;;-145.18;100.00;46660.41;5001782;28;20042;-71
2023/03/13 02:08:41;;;;;;;19.80;8.53;;;;;;;-145.18;100.00;46662.34;5033130;28;20270;-71
2023/03/13 02:11:16;;;;;;;22.93;10.53;;;;;;;-145.18;100.00;46664.31;5052871;28;20364;-72
2023/03/13 02:13:42;;;;;;;20.67;11.13;;;;;;;-145.18;100.00;46660.41;5052692;28;20036;-72
2023/03/13 02:16:08;;;;;;;33.97;13.80;;;;;;;-145.18;100.00;46662.34;5053234;28;20366;-72
2023/03/13 02:18:36;;;;;;;28.73;12.67;;;;;;;-145.18;100.00;46656.50;5052660;28;20361;-72
2023/03/13 02:21:10;;;;;;;23.97;12.53;;;;;;;-145.18;100.00;46662.34;5032959;28;20025;-71
2023/03/13 02:23:49;;;;;;;25.13;12.77;;;;;;;-145.18;100.00;46666.25;5033014;28;20110;-72
2023/03/13 02:26:15;;;;;;;27.93;14.10;;;;;;;-145.18;100.00;46658.44;5033002;28;20282;-72
2023/03/13 02:28:40;;;;;;;35.67;14.70;;;;;;;-145.18;100.00;46662.34;5033927;28;20614;-71
2023/03/13 02:31:07;;;;;;;31.83;14.63;;;;;;;-145.18;100.00;46666.25;5052739;28;20032;-72
2023/03/13 02:33:37;;;;;;;26.43;14.77;;;;;;;-145.18;100.00;46664.31;5052526;28;20029;-71
2023/03/13 02:36:04;;;;;;;29.83;14.63;;;;;;;-145.18;100.00;46662.34;5052418;28;20032;-71
2023/03/13 02:38:33;;;;;;;31.73;15.33;;;;;;;-145.18;100.00;46666.25;5052614;28;20025;-71
2023/03/13 02:41:00;;;;;;;27.67;13.97;;;;;;;-145.18;100.00;46666.25;5034122;28;20486;-71
2023/03/13 02:43:34;;;;;;;24.30;14.23;;;;;;;-145.18;100.00;46662.34;5032674;28;20034;-71
2023/03/13 02:46:13;;;;;;;22.07;14.10;;;;;;;-145.18;100.00;46660.41;5034099;28;20025;-71
2023/03/13 02:48:42;;;;;;;21.37;12.97;;;;;;;-145.18;100.00;46666.25;5032055;28;20102;-71
2023/03/13 02:51:13;;;;;;;25.17;12.93;;;;;;;-145.18;100.00;46670.16;5032293;28;20033;-71
2023/03/13 02:53:40;;;;;;;19.57;11.87;;;;;;;-145.18;100.00;46670.16;5032524;28;20029;-71
2023/03/13 02:56:06;;;;;;;19.10;11.40;;;;;;;-145.18;100.00;46672.13;5032490;28;20025;-71
2023/03/13 02:58:38;;;;;;;21.33;11.40;;;;;;;-145.18;100.00;46664.31;5047213;28;20381;-71
2023/03/13 03:01:06;;;;;;;21.90;11.30;;;;;;;-145.18;100.00;46666.25;5052082;28;20112;-71
2023/03/13 03:03:34;;;;;;;16.93;9.90;;;;;;;-145.18;100.00;46672.13;5032071;28;20580;-71
2023/03/13 03:06:00;;;;;;;16.97;9.37;;;;;;;-145.18;100.00;46670.16;5032325;28;20397;-71
2023/03/13 03:08:25;;;;;;;16.60;9.37;;;;;;;-145.18;100.00;46670.16;5018202;28;20028;-71
2023/03/13 03:10:51;;;;;;;17.23;8.53;;;;;;;-145.18;100.00;46676.03;5012462;28;20034;-71
2023/03/13 03:13:16;;;;;;;15.87;8.17;;;;;;;-145.18;100.00;46670.16;5011199;28;20054;-71
2023/03/13 03:15:41;;;;;;;14.53;8.40;;;;;;;-145.18;100.00;46674.06;5017416;28;20501;-71
2023/03/13 03:18:07;;;;;;;13.70;7.07;;;;;;;-145.18;100.00;46670.16;5020796;28;20038;-71
2023/03/13 03:20:32;;;;;;;16.27;7.77;;;;;;;-145.18;100.00;46679.94;5012221;28;20073;-71
2023/03/13 03:22:57;;;;;;;11.70;7.13;;;;;;;-145.18;100.00;46670.16;5012023;28;20034;-71
2023/03/13 03:25:23;;;;;;;10.60;6.40;;;;;;;-145.18;100.00;46676.03;5012365;28;20081;-71
2023/03/13 03:27:48;;;;;;;12.37;7.07;;;;;;;-145.18;100.00;46672.13;5019916;28;20069;-71
2023/03/13 03:30:14;;;;;;;11.07;6.30;;;;;;;-145.18;100.00;46674.06;5014233;28;20402;-71
2023/03/13 03:32:39;;;;;;;13.50;6.30;;;;;;;-145.18;100.00;46676.03;5031825;28;20068;-71
2023/03/13 03:35:05;;;;;;;12.10;6.57;;;;;;;-145.18;100.00;46676.03;5029963;28;20065;-71
2023/03/13 03:37:31;;;;;;;13.43;6.53;;;;;;;-145.18;100.00;46666.25;5017111;28;20493;-71
2023/03/13 03:39:56;;;;;;;12.47;6.10;;;;;;;-145.18;100.00;46674.06;5031711;28;20091;-71
2023/03/13 03:42:21;;;;;;;11.10;6.77;;;;;;;-145.18;100.00;46677.97;5031631;28;20041;-71
2023/03/13 03:44:47;;;;;;;9.70;6.20;;;;;;;-145.18;100.00;46672.13;5031668;28;20513;-71
2023/03/13 03:47:12;;;;;;;11.77;6.30;;;;;;;-145.18;100.00;46674.06;5027529;28;20061;-72
2023/03/13 03:49:38;;;;;;;12.07;7.10;;;;;;;-145.18;100.00;46677.97;5011003;28;20116;-71
2023/03/13 03:52:03;;;;;;;10.60;6.00;;;;;;;-145.18;100.00;46677.97;5011806;28;20503;-71
2023/03/13 03:54:29;;;;;;;9.13;5.57;;;;;;;-145.18;100.00;46676.03;5011535;28;20033;-72
2023/03/13 03:56:54;;;;;;;11.67;5.63;;;;;;;-145.18;100.00;46691.66;5029816;28;20037;-71
2023/03/13 03:59:20;;;;;;;13.97;6.03;;;;;;;-145.18;100.00;46677.97;5011512;28;20042;-71
2023/03/13 04:01:46;;;;;;;9.73;6.17;;;;;;;-145.18;100.00;46683.84;5011464;28;20030;-72
2023/03/13 04:04:11;;;;;;;9.47;5.60;;;;;;;-145.18;100.00;46676.03;5011126;28;20516;-71
2023/03/13 04:06:36;;;;;;;14.80;6.57;;;;;;;-145.18;100.00;46676.03;5011715;28;20030;-71
2023/03/13 04:09:02;;;;;;;10.30;5.63;;;;;;;-145.18;100.00;46679.94;5027653;28;20401;-71
2023/03/13 04:11:27;;;;;;;14.33;5.77;;;;;;;-145.18;100.00;46672.13;5030202;28;20088;-71
2023/03/13 04:13:53;;;;;;;8.27;4.83;;;;;;;-145.18;100.00;46674.06;5030638;28;20072;-72
2023/03/13 04:16:18;;;;;;;9.47;4.90;;;;;;;-145.18;100.00;46679.94;5030970;28;20042;-72
2023/03/13 04:18:43;;;;;;;9.20;4.80;;;;;;;-145.18;100.00;46677.97;5016555;28;20046;-71
2023/03/13 04:21:09;;;;;;;10.17;4.33;;;;;;;-145.18;100.00;46687.75;5011328;28;20042;-71
2023/03/13 04:23:34;;;;;;;10.10;4.87;;;;;;;-145.18;100.00;46677.97;5010838;28;20031;-71
2023/03/13 04:26:00;;;;;;;7.70;4.37;;;;;;;-145.18;100.00;46679.94;5010278;28;20478;-71
2023/03/13 04:28:25;;;;;;;8.07;4.23;;;;;;;-145.18;100.00;46679.94;5022002;28;20038;-72
2023/03/13 04:30:51;;;;;;;10.20;4.57;;;;;;;-145.18;100.00;46683.84;5012873;28;20386;-72
2023/03/13 04:33:17;;;;;;;6.80;3.60;;;;;;;-145.18;100.00;46685.78;5030487;28;20029;-71
2023/03/13 04:35:43;;;;;;;6.60;3.70;;;;;;;-145.18;100.00;46679.94;5030810;28;20037;-71
2023/03/13 04:38:08;;;;;;;10.47;3.73;;;;;;;-145.18;100.00;46691.66;5021132;28;20125;-71
2023/03/13 04:40:33;;;;;;;10.13;4.23;;;;;;;-145.18;100.00;46703.38;5010942;28;20057;-71
2023/03/13 04:42:59;;;;;;;10.27;3.70;;;;;;;-145.18;100.00;46693.59;5010211;28;20040;-72
2023/03/13 04:45:24;;;;;;;8.40;4.33;;;;;;;-145.18;100.00;46695.56;5011006;28;20042;-72
2023/03/13 04:47:50;;;;;;;9.50;4.00;;;;;;;-145.18;100.00;46695.56;5010949;28;20045;-71
2023/03/13 04:50:15;;;;;;;9.40;3.70;;;;;;;-145.18;100.00;46701.41;5008103;28;20057;-71
2023/03/13 04:52:40;;;;;;;5.30;3.80;;;;;;;-145.18;100.00;46697.50;5010461;28;20042;-71
2023/03/13 04:55:06;;;;;;;11.43;3.63;;;;;;;-145.18;100.00;46707.28;5010780;28;20042;-71
2023/03/13 04:57:31;;;;;;;9.00;3.37;;;;;;;-145.18;100.00;46703.38;5017547;28;20061;-72
2023/03/13 04:59:57;;;;;;;7.13;3.63;;;;;;;-145.18;100.00;46707.28;5029050;28;20040;-72
2023/03/13 05:02:22;;;;;;;9.70;3.57;;;;;;;-145.18;100.00;46705.31;5029508;28;20571;-72
2023/03/13 05:04:48;;;;;;;9.23;3.37;;;;;;;-145.18;100.00;46699.47;5029845;28;20590;-71
2023/03/13 05:07:13;;;;;;;7.57;3.23;;;;;;;-145.18;100.00;46711.19;5025732;28;20038;-71
2023/03/13 05:09:38;;;;;;;6.60;2.47;;;;;;;-145.18;100.00;46711.19;5010364;28;20116;-71
2023/03/13 05:12:04;;;;;;;7.93;3.37;;;;;;;-145.18;100.00;46715.09;5010267;28;20121;-72
2023/03/13 05:14:29;;;;;;;10.80;3.30;;;;;;;-145.18;100.00;46719.00;5010203;28;20040;-71
2023/03/13 05:16:55;;;;;;;9.87;3.23;;;;;;;-145.18;100.00;46713.13;5012027;28;20104;-71
2023/03/13 05:19:20;;;;;;;5.63;3.13;;;;;;;-145.18;100.00;46715.09;5030203;28;20112;-71
2023/03/13 05:21:45;;;;;;;8.40;3.33;;;;;;;-145.18;100.00;46715.09;5029832;28;20072;-72
2023/03/13 05:24:11;;;;;;;9.07;3.50;;;;;;;-145.18;100.00;46719.00;5029700;28;20104;-72
2023/03/13 05:26:36;;;;;;;10.27;3.57;;;;;;;-145.18;100.00;46717.03;5025653;28;20475;-71
2023/03/13 05:29:02;;;;;;;10.03;3.67;;;;;;;-145.18;100.00;46717.03;5010102;28;20038;-72
2023/03/13 05:31:27;;;;;;;8.93;2.97;;;;;;;-145.18;100.00;46719.00;5010500;28;20042;-72
2023/03/13 05:33:52;;;;;;;6.90;3.00;;;;;;;-145.18;100.00;46711.19;5009883;28;20071;-72
2023/03/13 05:36:18;;;;;;;8.63;3.40;;;;;;;-145.18;100.00;46719.00;5011405;28;20045;-72
2023/03/13 05:38:43;;;;;;;12.17;3.37;;;;;;;-145.18;100.00;46717.03;5034034;28;20029;-72
2023/03/13 05:41:08;;;;;;;10.80;3.83;;;;;;;-145.18;100.00;46717.03;5033873;28;20041;-72
2023/03/13 05:43:34;;;;;;;14.73;3.53;;;;;;;-145.18;100.00;46722.91;5030880;28;20394;-72
2023/03/13 05:45:59;;;;;;;6.13;3.20;;;;;;;-145.18;100.00;46719.00;5014751;28;20117;-72
2023/03/13 05:48:25;;;;;;;14.07;3.67;;;;;;;-145.18;100.00;46717.03;5029465;28;20402;-72
2023/03/13 05:50:50;;;;;;;12.03;3.70;;;;;;;-145.18;100.00;46719.00;5015041;28;20052;-72
2023/03/13 05:53:15;;;;;;;10.53;3.50;;;;;;;-145.18;100.00;46719.00;5017840;28;20033;-72
2023/03/13 05:55:41;;;;;;;8.83;3.80;;;;;;;-145.18;100.00;46720.94;5031966;28;20060;-72
2023/03/13 05:58:06;;;;;;;10.37;3.63;;;;;;;-145.18;100.00;46717.03;5031778;28;20021;-73
2023/03/13 06:00:32;;;;;;;9.30;3.27;;;;;;;-145.18;100.00;46722.91;5033776;28;20038;-72
2023/03/13 06:02:57;;;;;;;7.23;3.23;;;;;;;-145.18;100.00;46724.84;5031890;28;20130;-72
2023/03/13 06:05:23;;;;;;;13.87;3.03;;;;;;;-145.18;100.00;46724.84;5033546;28;20115;-72
2023/03/13 06:07:49;;;;;;;7.77;2.67;;;;;;;-145.18;100.00;46722.91;5033471;28;20042;-72
2023/03/13 06:10:15;;;;;;;11.13;3.23;;;;;;;-145.18;100.00;46720.94;5033329;28;20103;-72
2023/03/13 06:12:40;;;;;;;12.13;2.93;;;;;;;-145.18;100.00;46726.81;5033576;28;20033;-72
2023/03/13 06:15:08;;;;;;;6.40;2.50;;;;;;;-145.18;100.00;46728.75;5033185;28;20427;-73
2023/03/13 06:17:33;;;;;;;13.83;3.50;;;;;;;-145.18;100.00;46720.94;5033516;28;20038;-72
2023/03/13 06:19:59;;;;;;;6.67;2.83;;;;;;;-145.18;100.00;46722.91;5032734;28;20048;-73
2023/03/13 06:22:24;;;;;;;12.33;2.90;;;;;;;-145.18;100.00;46720.94;5033461;28;20076;-73
2023/03/13 06:24:49;;;;;;;8.83;3.00;;;;;;;-145.18;100.00;46726.81;5033103;28;20034;-73
2023/03/13 06:27:16;;;;;;;9.47;2.60;;;;;;;-145.18;100.00;46720.94;5033155;28;20065;-73
2023/03/13 06:29:41;;;;;;;8.97;2.67;;;;;;;-145.18;100.00;46722.91;5033106;28;20565;-73
2023/03/13 06:32:06;;;;;;;10.73;3.50;;;;;;;-145.18;100.00;46724.84;5033030;28;20112;-73
2023/03/13 06:34:32;;;;;;;9.40;3.03;;;;;;;-145.18;100.00;46724.84;5032586;28;20075;-72
2023/03/13 06:36:59;;;;;;;12.73;3.23;;;;;;;-145.18;100.00;46722.91;5032926;28;20033;-72
2023/03/13 06:39:24;;;;;;;7.07;2.80;;;;;;;-145.18;100.00;46719.00;5015421;28;20513;-72
2023/03/13 06:41:50;;;;;;;16.50;3.33;;;;;;;-145.18;100.00;46719.00;5013149;28;20105;-72
2023/03/13 06:44:15;;;;;;;9.93;3.03;;;;;;;-145.18;100.00;46720.94;4995100;28;20029;-72
2023/03/13 06:46:41;;;;;;;14.73;2.90;;;;;;;-145.18;100.00;46719.00;5013247;28;20034;-72
2023/03/13 06:49:06;;;;;;;10.23;3.10;;;;;;;-145.18;100.00;46722.91;5011633;28;20495;-72
2023/03/13 06:51:32;;;;;;;11.53;3.10;;;;;;;-145.18;100.00;46724.84;5012925;28;20123;-72
2023/03/13 06:53:58;;;;;;;9.40;2.97;;;;;;;-145.18;100.00;46722.91;5012615;28;20030;-72
2023/03/13 06:56:23;;;;;;;9.50;3.10;;;;;;;-145.18;100.00;46720.94;5013041;28;20045;-72
2023/03/13 06:58:49;;;;;;;8.37;2.60;;;;;;;-145.18;100.00;46724.84;5012629;28;20034;-72
2023/03/13 07:01:16;;;;;;;9.00;3.13;;;;;;;-145.18;100.00;46720.94;5012931;28;20056;-72
2023/03/13 07:03:42;;;;;;;14.43;3.03;;;;;;;-145.18;100.00;46722.91;5019527;28;20413;-73
2023/03/13 07:06:09;;;;;;;14.30;3.20;;;;;;;-145.18;100.00;46720.94;5032293;28;20682;-73
2023/03/13 07:08:36;;;;;;;11.77;3.30;;;;;;;-145.18;100.00;46717.03;5032237;28;20040;-73
2023/03/13 07:11:04;;;;;;;11.43;2.80;;;;;;;-145.18;100.00;46719.00;5026951;28;20037;-73
2023/03/13 07:13:30;;;;;;;6.47;3.27;;;;;;;-145.18;100.00;46715.09;5012453;28;20034;-72
2023/03/13 07:16:03;;;;;;;8.07;3.20;;;;;;;-145.18;100.00;46715.09;5012444;28;20034;-73
2023/03/13 07:18:28;;;;;;;13.00;4.07;;;;;;;-145.18;100.00;46717.03;5012361;28;20077;-73
2023/03/13 07:20:56;;;;;;;9.17;2.57;;;;;;;-145.18;100.00;46713.13;5012328;28;20514;-73
2023/03/13 07:23:23;;;;;;;10.47;3.13;;;;;;;-145.18;100.00;46711.19;5011669;28;20466;-73
2023/03/13 07:25:59;;;;;;;9.47;3.60;;;;;;;-145.18;100.00;46715.09;5012183;28;20042;-73
2023/03/13 07:28:26;;;;;;;15.77;2.93;;;;;;;-145.18;100.00;46713.13;5012222;28;20037;-73
2023/03/13 07:30:51;;;;;;;11.73;3.63;;;;;;;-145.18;100.00;46715.09;5012027;28;20041;-73
2023/03/13 07:33:17;;;;;;;8.73;2.57;;;;;;;-145.18;100.00;46717.03;5011828;28;20034;-73
2023/03/13 07:35:50;;;;;;;9.50;3.17;;;;;;;-145.18;100.00;46713.13;5001367;28;20569;-73
2023/03/13 07:38:16;;;;;;;10.60;2.60;;;;;;;-145.18;100.00;46709.22;5010229;28;20048;-73
2023/03/13 07:40:50;;;;;;;8.13;2.50;;;;;;;-145.18;100.00;46709.22;5011911;28;20040;-73
2023/03/13 07:43:16;;;;;;;9.93;4.40;;;;;;;-145.18;100.00;46713.13;5010808;28;20089;-73
2023/03/13 07:46:01;;;;;;;8.90;2.90;;;;;;;-145.18;100.00;46711.19;5026490;28;20038;-73
2023/03/13 07:48:35;;;;;;;7.23;2.37;;;;;;;-145.18;100.00;46711.19;5020433;28;20045;-73
2023/03/13 07:51:01;;;;;;;8.17;2.53;;;;;;;-145.18;100.00;46715.09;5010207;28;20042;-73
2023/03/13 07:53:27;;;;;;;8.73;2.70;;;;;;;-145.18;100.00;46713.13;5011270;28;20033;-73
2023/03/13 07:55:58;;;;;;;11.67;3.33;;;;;;;-145.18;100.00;46711.19;5010506;28;20042;-73
2023/03/13 07:58:25;;;;;;;12.90;2.90;;;;;;;-145.18;100.00;46707.28;5011423;28;20482;-73
2023/03/13 08:00:50;;;;;;;7.07;2.47;;;;;;;-145.18;100.00;46707.28;5011166;28;20389;-73
2023/03/13 08:03:16;;;;;;;8.53;2.60;;;;;;;-145.18;100.00;46713.13;5010591;28;20053;-73
2023/03/13 08:05:41;;;;;;;11.07;2.80;;;;;;;-145.18;100.00;46711.19;5010706;28;20034;-73
2023/03/13 08:08:07;;;;;;;7.87;2.13;;;;;;;-145.18;100.00;46715.09;5011129;28;20445;-73
2023/03/13 08:10:33;;;;;;;8.73;2.43;;;;;;;-145.18;100.00;46717.03;5009888;28;20061;-73
2023/03/13 08:12:58;;;;;;;10.13;2.50;;;;;;;-145.18;100.00;46713.13;5011214;28;20402;-73
2023/03/13 08:15:27;;;;;;;5.83;2.77;;;;;;;-145.18;100.00;46715.09;5010084;28;20037;-74
2023/03/13 08:17:53;;;;;;;9.83;2.70;;;;;;;-145.18;100.00;46711.19;5008763;28;20117;-73
2023/03/13 08:20:18;;;;;;;6.23;2.30;;;;;;;-145.18;100.00;46711.19;5010167;28;20133;-74
2023/03/13 08:22:49;;;;;;;9.40;2.50;;;;;;;-145.18;100.00;46711.19;5010740;28;20030;-73
2023/03/13 08:25:15;;;;;;;6.80;2.27;;;;;;;-145.18;100.00;46711.19;5010458;28;20503;-73
2023/03/13 08:27:40;;;;;;;11.77;3.03;;;;;;;-145.18;100.00;46705.31;5011027;28;20113;-73
2023/03/13 08:30:07;;;;;;;10.20;3.00;;;;;;;-145.18;100.00;46703.38;5010411;28;20125;-73
2023/03/13 08:32:33;;;;;;;10.30;2.50;;;;;;;-145.18;100.00;46707.28;5010549;28;20058;-73
2023/03/13 08:34:58;;;;;;;7.57;2.50;;;;;;;-145.18;100.00;46707.28;5010230;28;20386;-73
2023/03/13 08:37:24;;;;;;;9.00;2.30;;;;;;;-145.18;100.00;46703.38;5010684;28;20026;-73
2023/03/13 08:39:49;;;;;;;7.37;1.83;;;;;;;-145.18;100.00;46685.78;5010338;28;20449;-73
2023/03/13 08:42:14;;;;;;;10.93;2.93;;;;;;;-145.18;100.00;46654.53;5010159;28;20135;-73
2023/03/13 08:44:40;;;;;;;5.57;1.83;;;;;;;-145.18;100.00;46613.50;5010456;28;20022;-73
2023/03/13 08:47:07;;;;;;;8.20;1.57;;;;;;;-145.18;100.00;46588.13;5010347;28;20034;-73
2023/03/13 08:49:32;;;;;;;9.63;1.93;;;;;;;-145.18;100.00;46582.25;5009836;28;20034;-72
2023/03/13 08:51:58;;;;;;;5.63;1.57;;;;;;;-145.18;100.00;46584.22;5010052;28;20487;-73
2023/03/13 08:54:23;;;;;;;6.20;1.80;;;;;;;-145.18;100.00;46588.13;5010134;28;20030;-73
2023/03/13 08:56:49;;;;;;;7.07;1.83;;;;;;;-145.18;100.00;46592.03;5010577;28;20529;-73
2023/03/13 08:59:14;;;;;;;5.70;2.10;;;;;;;-145.18;100.00;46601.78;5009499;28;20060;-73
2023/03/13 09:01:40;;;;;;;6.73;1.80;;;;;;;-145.18;100.00;46599.84;5008277;28;20058;-72
2023/03/13 09:04:06;;;;;;;5.23;1.67;;;;;;;-145.18;100.00;46615.47;5009782;28;20418;-72
2023/03/13 09:06:36;;;;;;;7.63;1.53;;;;;;;-145.18;100.00;46615.47;5010054;28;20117;-73
2023/03/13 09:09:02;;;;;;;9.30;2.70;;;;;;;-145.18;100.00;46631.09;5009819;28;20036;-73
2023/03/13 09:11:28;;;;;;;3.77;1.40;;;;;;;-145.18;100.00;46629.13;5009428;28;20104;-72
2023/03/13 09:13:54;;;;;;;9.70;2.13;;;;;;;-145.18;100.00;46623.28;5009766;28;20033;-72
2023/03/13 09:16:22;;;;;;;9.33;2.10;;;;;;;-145.18;100.00;46617.41;5009860;28;20038;-73
2023/03/13 09:18:49;;;;;;;4.80;1.50;;;;;;;-145.18;100.00;46627.19;5009739;28;20065;-73
2023/03/13 09:21:20;;;;;;;6.63;1.37;;;;;;;-145.18;100.00;46633.06;5009921;28;20041;-73
2023/03/13 09:23:46;;;;;;;7.33;1.57;;;;;;;-145.18;100.00;46621.31;5009810;28;20032;-73
2023/03/13 09:26:12;;;;;;;5.60;1.40;;;;;;;-145.18;100.00;46633.06;5009561;28;20397;-72
2023/03/13 09:28:38;;;;;;;3.40;1.23;;;;;;;-145.18;100.00;46627.19;5009810;28;20034;-73
2023/03/13 09:31:07;;;;;;;10.47;2.20;;;;;;;-145.18;100.00;46646.72;5009943;28;20045;-73
2023/03/13 09:33:33;;;;;;;7.00;1.70;;;;;;;-145.18;100.00;46636.94;5009751;28;20033;-73
2023/03/13 09:35:59;;;;;;;5.27;1.50;;;;;;;-145.18;100.00;46640.88;5008703;28;20048;-73
2023/03/13 09:38:24;;;;;;;3.57;1.20;;;;;;;-145.18;100.00;46650.63;5009668;28;20064;-72
2023/03/13 09:40:52;;;;;;;3.00;1.30;;;;;;;-145.18;100.00;46644.78;4992401;28;20069;-72
2023/03/13 09:43:39;;;;;;;4.23;1.30;;;;;;;-145.18;100.00;46646.72;4992089;28;20135;-73
2023/03/13 09:46:15;;;;;;;8.23;1.70;;;;;;;-145.18;100.00;46635.00;5009578;28;20104;-73
2023/03/13 09:48:47;;;;;;;6.70;1.57;;;;;;;-145.18;100.00;46635.00;5009472;28;20123;-72
2023/03/13 09:51:23;;;;;;;6.30;1.60;;;;;;;-145.18;100.00;46638.91;5009717;28;20041;-72
2023/03/13 09:53:57;;;;;;;6.82;1.73;;;;;;;-145.18;100.00;46636.94;5009782;28;20553;-73
2023/03/13 09:56:26;;;;;;;4.20;1.40;;;;;;;-145.18;100.00;46650.63;5009523;28;20033;-73
2023/03/13 09:59:02;;;;;;;5.23;1.33;;;;;;;-145.18;100.00;46646.72;5009307;28;20030;-72
2023/03/13 10:01:30;;;;;;;13.07;2.30;;;;;;;-145.18;100.00;46642.81;5008873;28;20116;-73
2023/03/13 10:04:04;;;;;;;7.70;1.50;;;;;;;-145.18;100.00;46644.78;5009389;28;20597;-72
2023/03/13 10:06:34;;;;;;;5.80;1.83;;;;;;;-145.18;100.00;46648.69;5009635;28;20033;-73
2023/03/13 10:09:00;;;;;;;6.47;1.90;;;;;;;-145.18;100.00;46644.78;5009267;28;20482;-73
2023/03/13 10:11:46;;;;;;;8.00;1.70;;;;;;;-145.18;100.00;46695.56;5009308;28;20049;-73
2023/03/13 10:14:27;;;;;;;4.43;1.73;;;;;;;-145.18;100.00;46740.47;5008888;28;20513;-73
2023/03/13 10:17:05;;;;;;;7.77;2.73;;;;;;;-145.18;100.00;46763.91;5009524;28;20034;-73
2023/03/13 10:19:36;;;;;;;6.87;1.57;;;;;;;-145.18;100.00;46771.75;5009269;28;20061;-72
2023/03/13 10:22:07;;;;;;;6.37;1.33;;;;;;;-145.18;100.00;46826.44;5009904;28;20030;-73
2023/03/13 10:24:43;;;;;;;4.90;1.47;;;;;;;-145.18;100.00;46953.41;4996604;28;20033;-73
2023/03/13 10:27:12;;;;;;;5.90;1.23;;;;;;;-145.18;100.00;47236.66;5012942;28;20069;-73
2023/03/13 10:29:38;;;;;;;5.30;1.60;;;;;;;-145.18;100.00;47369.53;5012419;28;20479;-72
2023/03/13 10:32:06;;;;;;;7.40;1.77;;;;;;;-145.18;100.00;47426.19;5012739;28;20053;-73
2023/03/13 10:34:56;;;;;;;5.63;1.60;;;;;;;-145.18;100.00;47422.28;5012161;28;20397;-73
2023/03/13 10:37:24;;;;;;;4.87;1.50;;;;;;;-145.18;100.00;47392.97;5007334;28;20042;-72
2023/03/13 10:39:50;;;;;;;4.17;1.40;;;;;;;-145.18;100.00;47367.56;5012507;28;20045;-73
2023/03/13 10:42:25;;;;;;;6.10;1.60;;;;;;;-145.18;100.00;47394.91;5012258;28;20034;-73
2023/03/13 10:44:59;;;;;;;6.15;1.45;;;;;;;-145.18;100.00;47371.47;5012446;28;20082;-73
2023/03/13 10:47:24;;;;;;;6.07;1.40;;;;;;;-145.18;100.00;47377.34;5012547;28;20041;-73
2023/03/13 10:49:54;;;;;;;6.17;1.17;;;;;;;-145.18;100.00;47402.72;5012201;28;20044;-73
2023/03/13 10:52:33;;;;;;;7.70;1.83;;;;;;;-145.18;100.00;47391.00;5012127;28;20514;-73
2023/03/13 10:55:01;;;;;;;7.30;1.40;;;;;;;-145.18;100.00;47375.38;5012147;28;20049;-73
2023/03/13 10:57:36;;;;;;;5.20;1.30;;;;;;;-145.18;100.00;47447.66;5012191;28;20073;-73
2023/03/13 11:00:28;;;;;;;5.45;1.63;;;;;;;-145.18;100.00;47455.47;5011885;28;20037;-73
2023/03/13 11:02:54;;;;;;;7.10;1.63;;;;;;;-145.18;100.00;47381.25;5012013;28;20034;-73
2023/03/13 11:05:27;;;;;;;5.27;1.43;;;;;;;-145.18;100.00;47437.91;5011763;28;20387;-73
2023/03/13 11:07:53;;;;;;;5.33;1.37;;;;;;;-145.18;100.00;47441.81;5011913;28;20025;-73